createdAt,value
2023-03-06T00:01:01.692Z,1.70
2023-03-06T00:03:28.689Z,1.70
2023-03-06T00:05:59.011Z,1.70
2023-03-06T00:08:29.161Z,1.60
2023-03-06T00:10:56.903Z,1.70
2023-03-06T00:13:30.110Z,1.60
2023-03-06T00:16:03.524Z,1.60
2023-03-06T00:18:30.469Z,1.40
2023-03-06T00:20:57.795Z,1.40
2023-03-06T00:23:25.685Z,1.50
2023-03-06T00:25:52.600Z,1.50
2023-03-06T00:28:19.725Z,1.50
2023-03-06T00:30:47.551Z,1.50
2023-03-06T00:33:14.588Z,1.40
2023-03-06T00:35:42.600Z,1.30
2023-03-06T00:38:12.692Z,1.30
2023-03-06T00:40:39.678Z,1.10
2023-03-06T00:43:06.838Z,1.20
2023-03-06T00:45:33.888Z,1.40
2023-03-06T00:48:00.856Z,1.50
2023-03-06T00:50:29.029Z,1.50
2023-03-06T00:52:56.014Z,1.40
2023-03-06T00:55:23.096Z,1.40
2023-03-06T00:57:50.294Z,1.30
2023-03-06T01:00:18.225Z,1.30
2023-03-06T01:02:45.141Z,1.30
2023-03-06T01:05:14.457Z,1.40
2023-03-06T01:07:41.428Z,1.40
2023-03-06T01:10:10.988Z,1.30
2023-03-06T01:12:38.126Z,1.40
2023-03-06T01:15:06.977Z,1.30
2023-03-06T01:17:33.957Z,1.30
2023-03-06T01:20:01.035Z,1.20
2023-03-06T01:22:28.191Z,1.20
2023-03-06T01:24:55.076Z,1.20
2023-03-06T01:27:22.626Z,1.20
2023-03-06T01:29:49.814Z,1.10
2023-03-06T01:32:16.873Z,1.20
2023-03-06T01:34:43.796Z,1.20
2023-03-06T01:37:10.918Z,1.10
2023-03-06T01:39:37.840Z,1.20
2023-03-06T01:42:05.511Z,1.20
2023-03-06T01:44:33.235Z,1.20
2023-03-06T01:47:02.329Z,1.20
2023-03-06T01:49:40.510Z,1.30
2023-03-06T01:52:21.609Z,1.30
2023-03-06T01:55:08.609Z,1.30
2023-03-06T01:57:46.793Z,1.30
2023-03-06T02:00:23.783Z,1.20
2023-03-06T02:03:23.728Z,1.30
2023-03-06T02:05:51.434Z,1.40
2023-03-06T02:08:23.206Z,1.40
2023-03-06T02:11:16.747Z,1.50
2023-03-06T02:13:46.732Z,1.50
2023-03-06T02:16:17.605Z,1.50
2023-03-06T02:18:47.346Z,1.60
2023-03-06T02:21:29.141Z,1.60
2023-03-06T02:24:42.520Z,1.60
2023-03-06T02:27:14.569Z,1.70
2023-03-06T02:29:43.926Z,1.70
2023-03-06T02:32:13.454Z,1.80
2023-03-06T02:34:40.351Z,2.10
2023-03-06T02:37:11.669Z,2.10
2023-03-06T02:39:48.447Z,2.20
2023-03-06T02:42:29.050Z,2.40
2023-03-06T02:45:00.735Z,2.50
2023-03-06T02:47:27.679Z,2.50
2023-03-06T02:49:54.707Z,2.60
2023-03-06T02:52:22.310Z,2.50
2023-03-06T02:54:49.290Z,2.60
2023-03-06T02:57:16.273Z,2.50
2023-03-06T02:59:43.435Z,2.70
2023-03-06T03:02:10.776Z,2.80
2023-03-06T03:04:37.865Z,2.80
2023-03-06T03:07:05.104Z,2.80
2023-03-06T03:09:36.739Z,2.80
2023-03-06T03:12:07.484Z,3.00
2023-03-06T03:14:34.761Z,2.90
2023-03-06T03:17:02.469Z,2.80
2023-03-06T03:19:30.305Z,2.80
2023-03-06T03:21:57.403Z,2.80
2023-03-06T03:24:24.920Z,2.80
2023-03-06T03:26:52.738Z,2.80
2023-03-06T03:29:20.491Z,2.90
2023-03-06T03:31:48.272Z,2.90
2023-03-06T03:34:16.321Z,2.90
2023-03-06T03:36:43.271Z,2.90
2023-03-06T03:39:10.614Z,2.90
2023-03-06T03:41:37.521Z,2.80
2023-03-06T03:44:04.685Z,3.00
2023-03-06T03:46:32.018Z,2.90
2023-03-06T03:48:59.097Z,2.90
2023-03-06T03:51:26.469Z,2.90
2023-03-06T03:53:53.410Z,2.90
2023-03-06T03:56:20.351Z,2.90
2023-03-06T03:58:50.324Z,2.80
2023-03-06T04:01:17.558Z,2.70
2023-03-06T04:03:44.745Z,2.70
2023-03-06T04:06:11.657Z,2.70
2023-03-06T04:08:38.719Z,2.50
2023-03-06T04:11:06.175Z,2.40
2023-03-06T04:13:35.445Z,2.30
2023-03-06T04:16:02.729Z,2.30
2023-03-06T04:18:29.934Z,2.20
2023-03-06T04:20:56.844Z,2.20
2023-03-06T04:23:24.552Z,2.10
2023-03-06T04:25:51.901Z,2.10
2023-03-06T04:28:20.046Z,2.20
2023-03-06T04:30:46.997Z,2.10
2023-03-06T04:33:13.951Z,2.00
2023-03-06T04:35:41.073Z,2.00
2023-03-06T04:38:08.311Z,1.80
2023-03-06T04:40:37.372Z,1.80
2023-03-06T04:43:05.389Z,1.90
2023-03-06T04:45:34.246Z,1.90
2023-03-06T04:48:02.069Z,1.90
2023-03-06T04:50:32.518Z,1.90
2023-03-06T04:53:03.557Z,2.00
2023-03-06T04:55:32.965Z,2.10
2023-03-06T04:58:00.234Z,2.00
2023-03-06T05:00:31.902Z,1.90
2023-03-06T05:03:01.311Z,1.90
2023-03-06T05:05:29.024Z,1.90
2023-03-06T05:07:57.292Z,1.80
2023-03-06T05:10:24.319Z,1.80
2023-03-06T05:12:51.574Z,1.80
2023-03-06T05:15:18.911Z,1.90
2023-03-06T05:17:47.610Z,1.80
2023-03-06T05:20:15.981Z,1.80
2023-03-06T05:22:45.483Z,1.60
2023-03-06T05:25:13.550Z,1.70
2023-03-06T05:27:42.556Z,1.60
2023-03-06T05:30:14.812Z,1.60
2023-03-06T05:32:42.914Z,1.60
2023-03-06T05:35:20.271Z,1.60
2023-03-06T05:37:48.367Z,1.60
2023-03-06T05:40:18.282Z,1.70
2023-03-06T05:42:45.378Z,1.50
2023-03-06T05:45:13.088Z,1.50
2023-03-06T05:47:40.317Z,1.40
2023-03-06T05:50:08.396Z,1.40
2023-03-06T05:52:35.363Z,1.50
2023-03-06T05:55:04.343Z,1.50
2023-03-06T05:57:31.503Z,1.50
2023-03-06T05:59:58.559Z,1.60
2023-03-06T06:02:25.729Z,1.70
2023-03-06T06:04:54.874Z,1.50
2023-03-06T06:07:21.844Z,1.50
2023-03-06T06:09:52.697Z,1.50
2023-03-06T06:12:19.897Z,1.50
2023-03-06T06:14:46.798Z,1.50
2023-03-06T06:17:13.883Z,1.60
2023-03-06T06:19:40.933Z,1.60
2023-03-06T06:22:08.426Z,1.60
2023-03-06T06:24:35.481Z,1.70
2023-03-06T06:27:04.062Z,1.60
2023-03-06T06:29:32.616Z,1.60
2023-03-06T06:32:00.485Z,1.60
2023-03-06T06:34:28.584Z,1.50
2023-03-06T06:36:55.834Z,1.50
2023-03-06T06:39:25.114Z,1.40
2023-03-06T06:42:09.634Z,1.40
2023-03-06T06:44:39.984Z,1.40
2023-03-06T06:47:25.182Z,1.40
2023-03-06T06:49:55.807Z,1.40
2023-03-06T06:52:25.708Z,1.50
2023-03-06T06:54:56.298Z,1.40
2023-03-06T06:57:23.181Z,1.50
2023-03-06T06:59:53.334Z,1.50
2023-03-06T07:02:21.876Z,1.60
2023-03-06T07:05:02.508Z,1.50
2023-03-06T07:07:34.257Z,1.50
2023-03-06T07:10:01.294Z,1.60
2023-03-06T07:12:28.468Z,1.50
2023-03-06T07:14:55.568Z,1.50
2023-03-06T07:17:29.317Z,1.40
2023-03-06T07:19:56.344Z,1.50
2023-03-06T07:22:23.953Z,1.60
2023-03-06T07:24:51.336Z,1.50
2023-03-06T07:27:22.937Z,1.50
2023-03-06T07:29:49.972Z,1.60
2023-03-06T07:32:17.120Z,1.60
2023-03-06T07:34:45.290Z,1.50
2023-03-06T07:37:12.475Z,1.40
2023-03-06T07:39:42.165Z,1.60
2023-03-06T07:42:14.030Z,1.80
2023-03-06T07:44:41.600Z,1.80
2023-03-06T07:47:08.596Z,1.70
2023-03-06T07:49:35.745Z,1.60
2023-03-06T07:52:03.779Z,1.60
2023-03-06T07:54:51.852Z,1.70
2023-03-06T07:57:19.316Z,1.90
2023-03-06T07:59:46.364Z,1.90
2023-03-06T08:02:13.372Z,2.00
2023-03-06T08:04:41.590Z,2.00
2023-03-06T08:07:09.047Z,2.00
2023-03-06T08:09:36.697Z,1.90
2023-03-06T08:12:04.145Z,2.00
2023-03-06T08:14:31.134Z,2.00
2023-03-06T08:16:59.306Z,1.90
2023-03-06T08:19:28.636Z,1.80
2023-03-06T08:21:56.479Z,1.90
2023-03-06T08:24:28.710Z,1.90
2023-03-06T08:26:55.746Z,2.10
2023-03-06T08:29:26.294Z,2.20
2023-03-06T08:37:27.333Z,2.20
2023-03-06T08:39:54.390Z,2.00
2023-03-06T08:42:21.592Z,2.00
2023-03-06T08:44:48.581Z,2.10
2023-03-06T08:47:15.645Z,2.00
2023-03-06T08:49:44.291Z,2.20
2023-03-06T08:52:11.320Z,2.20
2023-03-06T08:54:39.186Z,2.20
2023-03-06T08:57:07.311Z,2.00
2023-03-06T08:59:34.267Z,2.20
2023-03-06T09:02:01.825Z,2.20
2023-03-06T09:07:19.212Z,2.20
2023-03-06T09:09:46.200Z,2.30
2023-03-06T09:12:13.282Z,2.50
2023-03-06T09:14:40.314Z,2.60
2023-03-06T09:17:07.260Z,2.40
2023-03-06T09:19:37.230Z,2.30
2023-03-06T09:22:04.313Z,2.30
2023-03-06T09:24:31.396Z,2.10
2023-03-06T09:26:58.533Z,1.90
2023-03-06T09:29:25.732Z,2.20
2023-03-06T09:31:52.694Z,2.30
2023-03-06T09:34:21.317Z,2.40
2023-03-06T09:36:56.451Z,2.40
2023-03-06T09:39:30.584Z,2.40
2023-03-06T09:41:58.602Z,2.30
2023-03-06T09:44:32.533Z,2.40
2023-03-06T09:47:46.606Z,2.60
2023-03-06T09:50:37.814Z,2.60
2023-03-06T09:54:15.633Z,2.00
2023-03-06T09:56:51.154Z,2.10
2023-03-06T09:59:24.391Z,2.20
2023-03-06T10:02:35.480Z,2.50
2023-03-06T10:05:13.603Z,2.70
2023-03-06T10:08:03.444Z,2.70
2023-03-06T10:10:53.999Z,2.70
2023-03-06T10:13:51.570Z,2.70
2023-03-06T10:16:33.435Z,2.90
2023-03-06T10:19:13.958Z,3.00
2023-03-06T10:22:02.631Z,2.50
2023-03-06T10:25:22.387Z,2.30
2023-03-06T10:28:16.998Z,2.20
2023-03-06T10:31:02.916Z,2.10
2023-03-06T10:33:42.416Z,2.30
2023-03-06T10:36:17.640Z,2.50
2023-03-06T10:38:48.846Z,2.50
2023-03-06T10:41:31.239Z,2.00
2023-03-06T10:44:01.135Z,2.30
2023-03-06T10:46:35.783Z,2.20
2023-03-06T10:49:23.255Z,2.50
2023-03-06T10:52:04.186Z,2.70
2023-03-06T10:54:37.608Z,3.00
2023-03-06T10:57:31.479Z,3.00
2023-03-06T11:00:24.890Z,3.10
2023-03-06T11:03:25.215Z,3.10
2023-03-06T11:06:10.021Z,3.10
2023-03-06T11:08:41.546Z,3.10
2023-03-06T11:11:36.898Z,2.70
2023-03-06T11:14:27.423Z,2.70
2023-03-06T11:16:54.808Z,2.50
2023-03-06T11:19:32.843Z,2.80
2023-03-06T11:22:16.797Z,2.70
2023-03-06T11:24:53.250Z,2.90
2023-03-06T11:27:34.716Z,3.10
2023-03-06T11:30:18.293Z,3.00
2023-03-06T11:32:59.009Z,3.10
2023-03-06T11:35:47.065Z,3.00
2023-03-06T11:38:51.248Z,2.90
2023-03-06T11:41:57.336Z,2.90
2023-03-06T11:45:22.629Z,2.90
2023-03-06T11:48:21.615Z,2.80
2023-03-06T11:51:14.901Z,2.60
2023-03-06T11:53:42.057Z,2.80
2023-03-06T11:56:33.043Z,2.60
2023-03-06T12:00:00.184Z,2.60
2023-03-06T12:03:31.488Z,2.50
2023-03-06T12:06:44.975Z,2.90
2023-03-06T12:09:45.723Z,3.20
2023-03-06T12:12:59.137Z,3.20
2023-03-06T12:16:29.521Z,3.20
2023-03-06T12:19:57.730Z,3.50
2023-03-06T12:22:24.963Z,3.40
2023-03-06T12:25:36.619Z,3.20
2023-03-06T12:28:52.197Z,3.10
2023-03-06T12:32:21.590Z,3.20
2023-03-06T12:35:47.991Z,3.30
2023-03-06T12:39:18.199Z,3.30
2023-03-06T12:42:32.678Z,3.30
2023-03-06T12:45:37.350Z,3.50
2023-03-06T12:48:18.876Z,3.80
2023-03-06T12:50:48.028Z,3.70
2023-03-06T12:53:29.228Z,4.00
2023-03-06T12:56:04.005Z,3.80
2023-03-06T12:58:32.072Z,3.90
2023-03-06T13:01:32.686Z,4.20
2023-03-06T13:04:38.034Z,4.00
2023-03-06T13:07:56.587Z,4.20
2023-03-06T13:10:35.073Z,4.40
2023-03-06T13:13:34.484Z,4.70
2023-03-06T13:16:15.860Z,4.30
2023-03-06T13:18:42.788Z,4.30
2023-03-06T13:22:01.633Z,4.20
2023-03-06T13:24:37.378Z,4.20
2023-03-06T13:27:12.588Z,4.20
2023-03-06T13:29:39.399Z,4.20
2023-03-06T13:32:20.917Z,4.20
2023-03-06T13:34:50.007Z,4.30
2023-03-06T13:37:47.382Z,4.40
2023-03-06T13:40:24.540Z,4.40
2023-03-06T13:43:10.026Z,4.60
2023-03-06T13:45:48.136Z,4.70
2023-03-06T13:48:44.716Z,4.90
2023-03-06T13:51:32.652Z,5.00
2023-03-06T13:54:39.665Z,5.40
2023-03-06T13:57:39.366Z,5.30
2023-03-06T14:00:50.115Z,5.30
2023-03-06T14:03:47.820Z,5.30
2023-03-06T14:06:37.446Z,5.30
2023-03-06T14:09:15.908Z,5.50
2023-03-06T14:11:57.984Z,5.60
2023-03-06T14:14:55.041Z,5.60
2023-03-06T14:18:03.604Z,5.70
2023-03-06T14:20:38.827Z,5.40
2023-03-06T14:23:27.027Z,6.10
2023-03-06T14:26:24.848Z,6.90
2023-03-06T14:29:01.430Z,5.90
2023-03-06T14:31:41.137Z,5.90
2023-03-06T14:34:22.252Z,6.30
2023-03-06T14:37:05.720Z,6.50
2023-03-06T14:39:43.949Z,6.30
2023-03-06T14:42:35.999Z,6.50
2023-03-06T14:45:05.610Z,6.60
2023-03-06T14:47:36.933Z,5.90
2023-03-06T14:50:26.739Z,5.90
2023-03-06T14:53:33.717Z,5.80
2023-03-06T14:56:08.406Z,5.90
2023-03-06T14:58:50.272Z,6.40
2023-03-06T15:01:30.665Z,5.80
2023-03-06T15:04:02.022Z,5.60
2023-03-06T15:06:43.922Z,5.90
2023-03-06T15:09:27.084Z,5.50
2023-03-06T15:12:22.738Z,5.20
2023-03-06T15:15:02.808Z,4.80
2023-03-06T15:17:39.020Z,4.80
2023-03-06T15:20:42.902Z,4.70
2023-03-06T15:23:26.655Z,4.80
2023-03-06T15:26:29.119Z,4.90
2023-03-06T15:29:11.173Z,5.00
2023-03-06T15:31:45.362Z,4.90
2023-03-06T15:34:12.451Z,4.70
2023-03-06T15:36:48.045Z,4.80
2023-03-06T15:39:41.564Z,4.70
2023-03-06T15:42:20.257Z,4.60
2023-03-06T15:45:00.109Z,4.50
2023-03-06T15:47:27.030Z,4.50
2023-03-06T15:49:53.969Z,4.40
2023-03-06T15:52:25.450Z,4.40
2023-03-06T15:54:52.387Z,4.60
2023-03-06T15:57:31.202Z,4.50
2023-03-06T16:00:00.586Z,4.40
2023-03-06T16:02:27.953Z,4.40
2023-03-06T16:04:55.175Z,4.40
2023-03-06T16:07:22.183Z,4.20
2023-03-06T16:09:49.159Z,4.40
2023-03-06T16:12:21.683Z,4.10
2023-03-06T16:14:49.468Z,4.00
2023-03-06T16:17:17.319Z,4.00
2023-03-06T16:19:44.499Z,4.20
2023-03-06T16:22:12.126Z,4.20
2023-03-06T16:24:39.518Z,3.80
2023-03-06T16:27:06.961Z,3.70
2023-03-06T16:29:35.019Z,3.50
2023-03-06T16:32:02.890Z,3.40
2023-03-06T16:34:29.876Z,3.30
2023-03-06T16:36:57.704Z,3.40
2023-03-06T16:39:25.523Z,3.30
2023-03-06T16:41:52.761Z,3.10
2023-03-06T16:44:21.331Z,3.00
2023-03-06T16:46:50.341Z,3.10
2023-03-06T16:49:24.840Z,3.10
2023-03-06T16:51:53.216Z,2.90
2023-03-06T16:54:26.383Z,2.80
2023-03-06T16:56:53.652Z,2.80
2023-03-06T16:59:21.245Z,2.70
2023-03-06T17:01:48.782Z,2.70
2023-03-06T17:04:18.759Z,2.90
2023-03-06T17:06:45.889Z,3.10
2023-03-06T17:09:14.297Z,3.10
2023-03-06T17:11:43.324Z,2.90
2023-03-06T17:14:10.312Z,2.80
2023-03-06T17:16:40.408Z,2.80
2023-03-06T17:19:11.458Z,2.70
2023-03-06T17:21:39.216Z,2.60
2023-03-06T17:24:07.888Z,2.60
2023-03-06T17:26:37.047Z,2.40
2023-03-06T17:29:09.679Z,2.30
2023-03-06T17:31:36.570Z,2.40
2023-03-06T17:34:03.601Z,2.30
2023-03-06T17:36:33.482Z,2.30
2023-03-06T17:39:02.950Z,2.20
2023-03-06T17:41:34.662Z,2.30
2023-03-06T17:44:01.852Z,2.20
2023-03-06T17:46:29.051Z,2.30
2023-03-06T17:48:56.194Z,2.10
2023-03-06T17:51:26.577Z,2.10
2023-03-06T17:53:53.666Z,2.10
2023-03-06T17:56:20.590Z,2.10
2023-03-06T17:58:47.753Z,2.00
2023-03-06T18:01:23.589Z,1.90
2023-03-06T18:03:53.395Z,1.60
2023-03-06T18:06:25.064Z,1.50
2023-03-06T18:08:53.026Z,1.50
2023-03-06T18:11:21.686Z,1.40
2023-03-06T18:13:50.064Z,1.50
2023-03-06T18:16:23.381Z,1.50
2023-03-06T18:18:56.649Z,1.50
2023-03-06T18:21:25.527Z,1.60
2023-03-06T18:23:53.098Z,1.50
2023-03-06T18:26:26.085Z,1.40
2023-03-06T18:29:03.613Z,1.50
2023-03-06T18:31:36.475Z,1.50
2023-03-06T18:34:13.855Z,1.20
2023-03-06T18:36:43.652Z,1.20
2023-03-06T18:39:14.273Z,1.20
2023-03-06T18:41:42.119Z,1.20
2023-03-06T18:44:13.936Z,1.10
2023-03-06T18:46:41.404Z,1.00
2023-03-06T18:49:10.234Z,0.80
2023-03-06T18:51:37.746Z,0.80
2023-03-06T18:54:06.758Z,0.80
2023-03-06T18:56:34.513Z,0.80
2023-03-06T18:59:05.690Z,1.00
2023-03-06T19:01:34.180Z,1.00
2023-03-06T19:04:06.025Z,1.00
2023-03-06T19:06:33.131Z,0.90
2023-03-06T19:09:01.860Z,0.90
2023-03-06T19:11:29.978Z,0.90
2023-03-06T19:13:57.081Z,0.70
2023-03-06T19:16:29.603Z,0.70
2023-03-06T19:18:57.843Z,0.80
2023-03-06T19:21:29.164Z,0.90
2023-03-06T19:23:57.458Z,0.70
2023-03-06T19:26:24.899Z,1.00
2023-03-06T19:28:54.697Z,0.80
2023-03-06T19:31:27.188Z,0.70
2023-03-06T19:33:59.422Z,0.70
2023-03-06T19:36:34.726Z,0.70
2023-03-06T19:39:07.398Z,0.60
2023-03-06T19:41:35.416Z,0.60
2023-03-06T19:44:04.937Z,0.70
2023-03-06T19:46:32.919Z,0.70
2023-03-06T19:49:09.813Z,0.60
2023-03-06T19:51:37.097Z,0.50
2023-03-06T19:54:04.180Z,0.50
2023-03-06T19:56:32.138Z,0.50
2023-03-06T19:58:59.391Z,0.40
2023-03-06T20:01:28.524Z,0.40
2023-03-06T20:03:59.188Z,0.40
2023-03-06T20:06:36.362Z,0.40
2023-03-06T20:09:09.222Z,0.30
2023-03-06T20:11:36.481Z,0.30
2023-03-06T20:14:08.189Z,0.30
2023-03-06T20:16:36.121Z,0.30
2023-03-06T20:19:04.215Z,0.20
2023-03-06T20:21:38.245Z,0.20
2023-03-06T20:24:08.361Z,0.20
2023-03-06T20:26:37.542Z,0.10
2023-03-06T20:29:05.094Z,0.20
2023-03-06T20:31:32.166Z,0.30
2023-03-06T20:34:00.023Z,0.20
2023-03-06T20:36:41.035Z,0.10
2023-03-06T20:39:14.884Z,0.10
2023-03-06T20:41:43.013Z,0.00
2023-03-06T20:44:17.581Z,0.10
2023-03-06T20:46:45.651Z,0.00
2023-03-06T20:49:13.825Z,0.00
2023-03-06T20:51:44.546Z,0.00
2023-03-06T20:54:15.118Z,-0.10
2023-03-06T20:56:48.855Z,0.00
2023-03-06T20:59:16.243Z,0.00
2023-03-06T21:01:46.986Z,-0.10
2023-03-06T21:04:15.900Z,-0.10
2023-03-06T21:06:46.995Z,-0.10
2023-03-06T21:09:17.586Z,0.00
2023-03-06T21:11:45.511Z,0.00
2023-03-06T21:14:14.370Z,0.00
2023-03-06T21:16:43.054Z,0.00
2023-03-06T21:19:10.709Z,-0.10
2023-03-06T21:21:37.842Z,-0.10
2023-03-06T21:24:05.309Z,-0.10
2023-03-06T21:26:36.330Z,-0.10
2023-03-06T21:29:04.736Z,-0.10
2023-03-06T21:31:33.355Z,-0.10
2023-03-06T21:34:01.274Z,-0.20
2023-03-06T21:36:29.894Z,-0.20
2023-03-06T21:38:56.954Z,-0.20
2023-03-06T21:41:30.554Z,-0.20
2023-03-06T21:44:02.741Z,-0.20
2023-03-06T21:46:30.859Z,-0.10
2023-03-06T21:48:58.909Z,-0.10
2023-03-06T21:51:27.239Z,-0.10
2023-03-06T21:53:55.801Z,-0.10
2023-03-06T21:56:27.854Z,-0.10
2023-03-06T21:59:00.524Z,-0.20
2023-03-06T22:01:29.325Z,-0.20
2023-03-06T22:03:58.373Z,-0.30
2023-03-06T22:06:28.781Z,-0.40
2023-03-06T22:08:59.160Z,-0.30
2023-03-06T22:11:33.377Z,-0.30
2023-03-06T22:14:00.771Z,-0.40
2023-03-06T22:16:27.759Z,-0.40
2023-03-06T22:18:55.134Z,-0.50
2023-03-06T22:21:23.884Z,-0.40
2023-03-06T22:23:58.552Z,-0.50
2023-03-06T22:26:29.459Z,-0.40
2023-03-06T22:29:00.071Z,-0.40
2023-03-06T22:31:29.071Z,-0.40
2023-03-06T22:34:00.783Z,-0.40
2023-03-06T22:36:31.304Z,-0.40
2023-03-06T22:39:02.790Z,-0.40
2023-03-06T22:41:30.943Z,-0.40
2023-03-06T22:44:01.806Z,-0.50
2023-03-06T22:46:29.653Z,-0.40
2023-03-06T22:48:59.829Z,-0.50
2023-03-06T22:51:29.301Z,-0.50
2023-03-06T22:53:56.570Z,-0.50
2023-03-06T22:56:24.627Z,-0.60
2023-03-06T22:58:51.922Z,-0.30
2023-03-06T23:01:30.082Z,-0.30
2023-03-06T23:04:02.381Z,-0.40
2023-03-06T23:06:42.953Z,-0.50
2023-03-06T23:09:21.576Z,-0.60
2023-03-06T23:11:50.034Z,-0.60
2023-03-06T23:14:19.944Z,-0.70
2023-03-06T23:16:47.365Z,-0.70
2023-03-06T23:19:14.357Z,-0.80
2023-03-06T23:21:41.734Z,-0.80
2023-03-06T23:24:08.893Z,-0.70
2023-03-06T23:26:35.992Z,-0.70
2023-03-06T23:29:04.213Z,-0.80
2023-03-06T23:31:33.342Z,-0.80
2023-03-06T23:34:02.801Z,-1.00
2023-03-06T23:36:33.420Z,-1.00
2023-03-06T23:39:00.308Z,-0.90
2023-03-06T23:41:27.374Z,-1.00
2023-03-06T23:43:55.355Z,-1.10
2023-03-06T23:46:22.858Z,-1.10
2023-03-06T23:48:49.853Z,-1.10
2023-03-06T23:51:22.704Z,-1.10
2023-03-06T23:53:59.667Z,-1.30
2023-03-06T23:56:29.001Z,-1.20
2023-03-06T23:58:56.058Z,-1.20
